Time;durP1;ratioP1;P1;durP2;ratioP2;P2;SDS_P1;SDS_P2;PMS_P1;PMS_P2;Temp;Humidity;BMP_temperature;BMP_pressure;BME280_temperature;BME280_humidity;BME280_pressure;Samples;Min_cycle;Max_cycle;Signal;HPM_P1;HPM_P2
2023/03/30 00:01:09;;;;;;;3.72;0.80;;;11.60;95.40;;;;;;4993088;28;20048;-77
2023/03/30 00:03:41;;;;;;;1.40;0.65;;;11.60;95.40;;;;;;4995452;28;20494;-79
2023/03/30 00:06:10;;;;;;;2.08;0.70;;;11.70;95.30;;;;;;4961349;28;20050;-85
2023/03/30 00:08:37;;;;;;;2.15;0.85;;;11.90;95.10;;;;;;4980568;28;20034;-85
2023/03/30 00:11:08;;;;;;;3.38;0.90;;;12.00;94.90;;;;;;4977645;28;20466;-85
2023/03/30 00:13:36;;;;;;;1.13;0.60;;;12.10;94.80;;;;;;4977106;28;20062;-85
2023/03/30 00:16:05;;;;;;;2.20;0.40;;;12.10;94.70;;;;;;4964677;28;20042;-85
2023/03/30 00:18:33;;;;;;;3.35;0.68;;;12.10;94.70;;;;;;4987184;28;20155;-85
2023/03/30 00:21:03;;;;;;;2.78;0.60;;;12.20;94.70;;;;;;4980170;28;20046;-85
2023/03/30 00:23:31;;;;;;;1.52;0.90;;;12.20;94.60;;;;;;4974973;28;20490;-85
2023/03/30 00:25:59;;;;;;;3.30;0.80;;;12.30;94.50;;;;;;5015670;28;20431;-85
2023/03/30 00:28:33;;;;;;;2.30;0.70;;;12.30;94.40;;;;;;4982622;28;20042;-85
2023/03/30 00:31:01;;;;;;;2.35;0.80;;;12.30;94.30;;;;;;4996060;28;20089;-85
2023/03/30 00:33:28;;;;;;;2.15;0.90;;;12.40;94.30;;;;;;5012368;28;20052;-79
2023/03/30 00:36:11;;;;;;;;;;;12.30;94.40;;;;;;4995232;28;20060;-78
2023/03/30 00:38:39;;;;;;;2.63;0.73;;;12.30;94.30;;;;;;4981080;28;19921;-79
2023/03/30 00:41:08;;;;;;;2.15;0.85;;;12.40;94.30;;;;;;4995275;28;20133;-79
2023/03/30 00:43:53;;;;;;;2.90;1.10;;;12.40;94.20;;;;;;4995191;28;20054;-79
2023/03/30 00:46:22;;;;;;;3.35;1.10;;;12.40;94.10;;;;;;4994513;28;20056;-79
2023/03/30 00:48:50;;;;;;;4.30;1.55;;;12.40;94.00;;;;;;4969428;28;20042;-78
2023/03/30 00:51:18;;;;;;;2.58;1.10;;;12.50;93.80;;;;;;4957276;28;20457;-85
2023/03/30 00:53:49;;;;;;;2.53;1.10;;;12.60;93.60;;;;;;5002129;28;20081;-85
2023/03/30 00:56:22;;;;;;;2.72;1.00;;;12.60;93.60;;;;;;4983420;28;20053;-85
2023/03/30 00:58:50;;;;;;;2.20;1.05;;;12.70;93.50;;;;;;5000150;28;20054;-85
2023/03/30 01:01:24;;;;;;;3.90;0.80;;;12.70;93.40;;;;;;5017108;28;20108;-85
2023/03/30 01:03:52;;;;;;;2.75;1.00;;;12.80;93.30;;;;;;4987258;28;20041;-84
2023/03/30 01:06:23;;;;;;;3.58;0.80;;;12.80;93.30;;;;;;4983922;28;20112;-84
2023/03/30 01:08:51;;;;;;;2.75;0.90;;;12.80;93.20;;;;;;4983888;28;20067;-84
2023/03/30 01:11:20;;;;;;;2.55;1.00;;;12.90;93.10;;;;;;5014815;28;20449;-84
2023/03/30 01:13:51;;;;;;;2.35;0.85;;;12.90;93.00;;;;;;4983652;28;20068;-84
2023/03/30 01:16:35;;;;;;;1.77;0.70;;;12.90;92.80;;;;;;4999614;28;20100;-85
2023/03/30 01:19:38;;;;;;;3.65;0.82;;;13.00;92.80;;;;;;5005293;28;20045;-85
2023/03/30 01:22:13;;;;;;;3.65;0.85;;;13.00;92.80;;;;;;5005098;28;20041;-84
2023/03/30 01:25:10;;;;;;;2.30;0.80;;;13.00;92.80;;;;;;4985068;28;20045;-85
2023/03/30 01:28:14;;;;;;;1.85;0.52;;;13.00;92.80;;;;;;4992390;28;20069;-85
2023/03/30 01:30:53;;;;;;;1.88;0.50;;;13.00;92.80;;;;;;4983370;28;20070;-85
2023/03/30 01:34:15;;;;;;;1.00;0.32;;;12.90;92.90;;;;;;5002065;28;20046;-85
2023/03/30 01:37:20;;;;;;;2.00;0.68;;;12.90;92.90;;;;;;4917408;29;20098;-84
2023/03/30 01:40:15;;;;;;;1.25;0.55;;;12.80;93.00;;;;;;5020314;28;20486;-84
2023/03/30 01:42:42;;;;;;;1.40;0.40;;;12.70;93.00;;;;;;4996645;28;20104;-85
2023/03/30 01:45:19;;;;;;;4.05;0.75;;;12.70;93.10;;;;;;5017285;28;20071;-84
2023/03/30 01:47:51;;;;;;;1.85;0.50;;;12.70;93.10;;;;;;5006132;28;20073;-84
2023/03/30 01:50:24;;;;;;;;;;;12.80;93.00;;;;;;5019262;28;20111;-84
2023/03/30 01:53:10;;;;;;;3.78;0.77;;;12.80;92.90;;;;;;5010182;28;19965;-84
2023/03/30 01:55:46;;;;;;;3.13;0.45;;;12.90;92.70;;;;;;4998596;28;20100;-84
2023/03/30 01:58:16;;;;;;;1.63;0.60;;;12.90;92.70;;;;;;4999153;28;20073;-84
2023/03/30 02:00:49;;;;;;;1.67;0.70;;;12.90;92.60;;;;;;4998707;28;20108;-84
2023/03/30 02:03:31;;;;;;;1.15;0.40;;;13.00;92.50;;;;;;4983151;28;20053;-84
2023/03/30 02:06:05;;;;;;;1.58;0.65;;;13.10;92.40;;;;;;5000028;28;20045;-84
2023/03/30 02:08:35;;;;;;;1.38;0.40;;;13.00;92.50;;;;;;4998572;28;20092;-83
2023/03/30 02:11:03;;;;;;;1.00;0.40;;;13.00;92.50;;;;;;4982618;28;20046;-83
2023/03/30 02:13:32;;;;;;;0.90;0.40;;;12.90;92.50;;;;;;4998476;28;20517;-85
2023/03/30 02:16:06;;;;;;;1.48;0.47;;;12.90;92.60;;;;;;4982242;28;20078;-84
2023/03/30 02:18:34;;;;;;;1.63;0.50;;;12.90;92.60;;;;;;5000361;28;20136;-84
2023/03/30 02:21:01;;;;;;;2.95;0.50;;;12.80;92.50;;;;;;4990028;28;20072;-84
2023/03/30 02:23:38;;;;;;;1.15;0.47;;;12.90;92.50;;;;;;4966281;28;20073;-84
2023/03/30 02:26:07;;;;;;;1.92;0.60;;;12.80;92.50;;;;;;5001638;28;20046;-84
2023/03/30 02:28:35;;;;;;;2.13;0.68;;;12.80;92.40;;;;;;4979798;28;20411;-84
2023/03/30 02:31:03;;;;;;;1.17;0.50;;;12.80;92.40;;;;;;4981729;28;20069;-78
2023/03/30 02:33:49;;;;;;;1.00;0.47;;;12.80;92.30;;;;;;4965012;28;20041;-78
2023/03/30 02:36:26;;;;;;;2.10;0.50;;;12.80;92.40;;;;;;4997144;28;20038;-78
2023/03/30 02:39:28;;;;;;;1.58;0.60;;;12.70;92.40;;;;;;4983347;28;20038;-78
2023/03/30 02:42:07;;;;;;;2.25;0.50;;;12.60;92.40;;;;;;4993013;28;20451;-78
2023/03/30 02:44:49;;;;;;;1.65;0.70;;;12.60;92.40;;;;;;4996862;28;20042;-78
2023/03/30 02:47:31;;;;;;;3.08;0.60;;;12.60;92.40;;;;;;4990845;28;20046;-78
2023/03/30 02:50:16;;;;;;;2.08;0.70;;;12.60;92.40;;;;;;4986730;28;20042;-78
2023/03/30 02:52:51;;;;;;;2.83;0.70;;;12.60;92.40;;;;;;4985083;28;20053;-77
2023/03/30 02:55:24;;;;;;;2.08;0.52;;;12.70;92.30;;;;;;4996524;28;20049;-78
2023/03/30 02:58:13;;;;;;;1.23;0.75;;;12.80;92.10;;;;;;4987057;28;20153;-78
2023/03/30 03:01:12;;;;;;;1.38;0.55;;;12.80;91.90;;;;;;4991068;28;20056;-77
2023/03/30 03:03:49;;;;;;;1.95;0.50;;;12.90;91.70;;;;;;4976692;28;20042;-78
2023/03/30 03:06:22;;;;;;;3.45;0.60;;;13.00;91.70;;;;;;4992354;28;20042;-78
2023/03/30 03:08:53;;;;;;;1.00;0.30;;;13.00;91.70;;;;;;4952052;28;20045;-78
2023/03/30 03:11:26;;;;;;;1.83;0.50;;;13.00;91.70;;;;;;5008570;28;20055;-77
2023/03/30 03:13:55;;;;;;;2.47;0.70;;;13.00;91.70;;;;;;4986446;28;20491;-78
2023/03/30 03:16:23;;;;;;;1.33;0.40;;;13.00;91.60;;;;;;4977303;28;20092;-78
2023/03/30 03:19:12;;;;;;;1.63;0.77;;;13.10;91.60;;;;;;4996214;28;20046;-78
2023/03/30 03:21:39;;;;;;;3.28;0.43;;;13.10;91.40;;;;;;4980069;28;20056;-78
2023/03/30 03:24:07;;;;;;;1.35;0.60;;;13.20;91.40;;;;;;4981317;28;20557;-78
2023/03/30 03:27:03;;;;;;;1.63;0.50;;;13.10;91.40;;;;;;4937057;28;20458;-78
2023/03/30 03:29:41;;;;;;;2.05;0.80;;;13.10;91.50;;;;;;4976104;28;20053;-78
2023/03/30 03:32:09;;;;;;;1.08;0.45;;;13.10;91.60;;;;;;4964119;28;20046;-78
2023/03/30 03:34:45;;;;;;;1.65;0.40;;;13.10;91.60;;;;;;4983167;28;20052;-78
2023/03/30 03:37:13;;;;;;;0.85;0.30;;;13.10;91.70;;;;;;4977067;28;20137;-78
2023/03/30 03:39:42;;;;;;;0.63;0.20;;;13.00;91.80;;;;;;4990658;28;20042;-78
2023/03/30 03:42:11;;;;;;;1.15;0.30;;;12.90;92.00;;;;;;4979469;28;20084;-78
2023/03/30 03:44:49;;;;;;;1.05;0.30;;;12.80;92.10;;;;;;4994919;28;20053;-78
2023/03/30 03:47:17;;;;;;;1.13;0.40;;;12.70;92.10;;;;;;4991778;28;20192;-78
2023/03/30 03:49:45;;;;;;;1.23;0.30;;;12.70;92.20;;;;;;4995358;28;20393;-80
2023/03/30 03:52:13;;;;;;;2.03;0.45;;;12.50;92.20;;;;;;4962928;28;20072;-79
2023/03/30 03:54:40;;;;;;;0.80;0.40;;;12.50;92.40;;;;;;4994968;28;20052;-78
2023/03/30 03:57:08;;;;;;;1.27;0.32;;;12.40;92.40;;;;;;4965064;28;20049;-78
2023/03/30 03:59:35;;;;;;;1.48;0.40;;;12.40;92.40;;;;;;4996423;28;20042;-78
2023/03/30 04:02:05;;;;;;;2.67;0.40;;;12.40;92.40;;;;;;4974957;28;20113;-78
2023/03/30 04:04:32;;;;;;;1.58;0.52;;;12.40;92.40;;;;;;4979068;28;20057;-78
2023/03/30 04:07:00;;;;;;;1.98;0.40;;;12.40;92.40;;;;;;4978794;28;20049;-78
2023/03/30 04:09:27;;;;;;;1.75;0.40;;;12.50;92.30;;;;;;4994885;28;20064;-78
2023/03/30 04:11:59;;;;;;;1.35;0.40;;;12.60;92.30;;;;;;4995977;28;20060;-78
2023/03/30 04:14:45;;;;;;;1.30;0.47;;;12.70;92.20;;;;;;5005573;28;20064;-78
2023/03/30 04:17:25;;;;;;;1.90;0.35;;;12.80;92.10;;;;;;4996747;28;20068;-78
2023/03/30 04:20:26;;;;;;;1.33;0.43;;;12.90;92.10;;;;;;4972576;28;20058;-78
2023/03/30 04:23:09;;;;;;;1.30;0.47;;;12.90;92.00;;;;;;5000345;28;20046;-78
2023/03/30 04:25:50;;;;;;;2.85;0.50;;;13.00;92.10;;;;;;5000231;28;20501;-78
2023/03/30 04:28:20;;;;;;;1.02;0.32;;;13.00;92.00;;;;;;4998299;28;20042;-78
2023/03/30 04:31:11;;;;;;;2.50;0.50;;;13.10;92.00;;;;;;4969185;28;20046;-78
2023/03/30 04:33:51;;;;;;;2.20;0.43;;;13.10;92.00;;;;;;5015568;28;20045;-78
2023/03/30 04:36:31;;;;;;;1.90;0.40;;;13.20;92.00;;;;;;5010222;28;20529;-77
2023/03/30 04:39:17;;;;;;;1.45;0.45;;;13.20;92.10;;;;;;5001769;28;20525;-78
2023/03/30 04:42:05;;;;;;;4.05;0.70;;;13.20;92.10;;;;;;4933141;28;1156059;-79
2023/03/30 04:44:50;;;;;;;3.05;0.30;;;13.20;92.10;;;;;;4995581;28;20044;-78
2023/03/30 04:47:38;;;;;;;1.05;0.25;;;13.20;92.20;;;;;;4978692;28;20044;-78
2023/03/30 04:50:25;;;;;;;3.03;0.68;;;13.20;92.20;;;;;;4939890;28;20054;-78
2023/03/30 04:53:11;;;;;;;0.65;0.30;;;13.20;92.20;;;;;;4988421;28;20461;-78
2023/03/30 04:56:06;;;;;;;1.40;0.30;;;13.20;92.30;;;;;;4977709;28;20506;-78
2023/03/30 04:59:09;;;;;;;1.08;0.35;;;13.20;92.40;;;;;;4969576;28;20082;-78
2023/03/30 05:01:55;;;;;;;0.90;0.10;;;13.10;92.50;;;;;;4994263;28;20104;-79
2023/03/30 05:04:22;;;;;;;1.08;0.30;;;13.10;92.60;;;;;;4999863;28;20042;-78
2023/03/30 05:07:24;;;;;;;1.52;0.43;;;13.00;92.80;;;;;;4944268;29;20385;-79
2023/03/30 05:10:13;;;;;;;1.40;0.57;;;12.70;93.20;;;;;;4975393;28;20053;-80
2023/03/30 05:12:59;;;;;;;2.40;0.82;;;12.40;93.50;;;;;;4976470;28;20053;-80
2023/03/30 05:15:36;;;;;;;2.45;0.70;;;12.30;94.20;;;;;;4961047;28;20051;-79
2023/03/30 05:18:21;;;;;;;5.05;1.10;;;12.10;94.60;;;;;;5008947;28;20052;-80
2023/03/30 05:21:15;;;;;;;3.60;1.15;;;12.00;95.00;;;;;;4999051;28;20053;-79
2023/03/30 05:23:55;;;;;;;4.60;0.90;;;11.90;95.30;;;;;;4970986;28;20042;-80
2023/03/30 05:26:40;;;;;;;2.38;0.65;;;11.90;95.50;;;;;;5001557;28;20044;-79
2023/03/30 05:29:08;;;;;;;2.88;1.10;;;11.80;95.50;;;;;;4979597;28;20043;-80
2023/03/30 05:32:01;;;;;;;4.35;1.17;;;11.80;95.70;;;;;;4985245;28;20455;-80
2023/03/30 05:35:00;;;;;;;3.55;0.93;;;11.80;95.80;;;;;;4977631;28;20099;-79
2023/03/30 05:37:57;;;;;;;3.35;1.13;;;11.80;96.00;;;;;;4966068;28;20406;-80
2023/03/30 05:40:43;;;;;;;2.85;0.80;;;11.70;96.20;;;;;;5000621;28;20061;-80
2023/03/30 05:43:22;;;;;;;2.60;1.08;;;11.70;96.20;;;;;;4982960;28;20514;-80
2023/03/30 05:46:11;;;;;;;4.57;1.45;;;11.70;96.30;;;;;;4981546;28;20121;-80
2023/03/30 05:49:17;;;;;;;2.30;1.02;;;11.70;96.30;;;;;;4927741;29;20153;-79
2023/03/30 05:52:10;;;;;;;3.63;1.13;;;11.60;96.50;;;;;;4902856;29;20134;-80
2023/03/30 05:55:00;;;;;;;2.65;1.10;;;11.60;96.80;;;;;;4987722;28;20058;-79
2023/03/30 05:57:47;;;;;;;3.83;1.00;;;11.60;96.70;;;;;;4966521;28;20047;-80
2023/03/30 06:00:35;;;;;;;2.67;0.90;;;11.60;96.70;;;;;;5011891;28;20042;-79
2023/03/30 06:03:14;;;;;;;3.58;1.30;;;11.60;96.80;;;;;;4955421;28;20717;-80
2023/03/30 06:05:42;;;;;;;11.65;1.50;;;11.60;96.90;;;;;;4981517;28;20100;-79
2023/03/30 06:08:15;;;;;;;5.18;1.70;;;11.60;97.00;;;;;;4965401;28;20073;-79
2023/03/30 06:10:54;;;;;;;6.22;1.77;;;11.60;97.10;;;;;;4965575;28;20045;-80
2023/03/30 06:13:24;;;;;;;3.42;1.00;;;11.70;97.20;;;;;;4997056;28;20514;-80
2023/03/30 06:15:52;;;;;;;6.03;1.77;;;11.70;97.20;;;;;;4985644;28;20064;-79
2023/03/30 06:18:22;;;;;;;6.30;1.65;;;11.70;97.20;;;;;;4978603;28;20099;-79
2023/03/30 06:21:05;;;;;;;5.80;2.53;;;11.80;97.30;;;;;;5004870;28;20053;-79
2023/03/30 06:23:46;;;;;;;5.50;1.70;;;11.80;97.40;;;;;;4968306;28;20042;-79
2023/03/30 06:26:17;;;;;;;5.53;2.15;;;11.90;97.50;;;;;;4976122;28;20128;-79
2023/03/30 06:28:46;;;;;;;5.85;1.98;;;11.90;97.50;;;;;;4999981;28;20088;-79
2023/03/30 06:31:14;;;;;;;5.38;1.23;;;11.90;97.60;;;;;;4980958;28;20045;-79
2023/03/30 06:33:44;;;;;;;3.95;1.35;;;11.90;97.50;;;;;;4965000;28;20042;-79
2023/03/30 06:36:13;;;;;;;4.50;1.13;;;12.00;97.50;;;;;;4997425;28;20060;-80
2023/03/30 06:38:43;;;;;;;5.38;1.50;;;12.00;97.60;;;;;;4982188;28;20096;-79
2023/03/30 06:41:11;;;;;;;8.15;1.73;;;12.00;97.70;;;;;;5003305;28;20045;-80
2023/03/30 06:43:43;;;;;;;;;;;12.10;97.70;;;;;;4995004;28;20566;-81
2023/03/30 06:46:14;;;;;;;5.82;1.13;;;12.10;97.90;;;;;;4986950;28;20373;-81
2023/03/30 06:48:47;;;;;;;5.70;1.77;;;12.10;97.80;;;;;;4980491;28;20041;-81
2023/03/30 06:51:36;;;;;;;5.50;1.27;;;12.10;97.70;;;;;;4990683;28;20053;-81
2023/03/30 06:54:05;;;;;;;8.95;1.52;;;12.10;97.60;;;;;;5002885;28;20062;-81
2023/03/30 06:56:33;;;;;;;2.65;1.02;;;12.10;97.70;;;;;;4993228;28;20038;-80
2023/03/30 06:59:08;;;;;;;6.82;1.83;;;12.10;97.70;;;;;;4993203;28;20149;-84
2023/03/30 07:01:56;;;;;;;4.80;1.05;;;12.10;97.80;;;;;;4968239;28;20414;-83
2023/03/30 07:05:07;;;;;;;8.40;1.95;;;12.00;97.80;;;;;;4943606;29;20043;-86
2023/03/30 07:07:52;;;;;;;5.65;1.73;;;12.00;98.00;;;;;;4949487;29;20043;-84
2023/03/30 07:10:21;;;;;;;8.25;1.92;;;11.90;98.00;;;;;;4970815;28;20069;-83
2023/03/30 07:12:51;;;;;;;5.55;1.42;;;11.80;98.00;;;;;;5004256;28;20049;-84
2023/03/30 07:15:20;;;;;;;6.37;1.50;;;11.80;98.00;;;;;;4963456;28;20410;-84
2023/03/30 07:17:48;;;;;;;7.30;1.70;;;11.80;98.00;;;;;;4999776;28;20505;-84
2023/03/30 07:20:16;;;;;;;7.63;1.10;;;11.90;98.00;;;;;;4981198;28;20046;-84
2023/03/30 07:23:06;;;;;;;5.88;1.10;;;11.90;97.90;;;;;;4999834;28;20133;-84
2023/03/30 07:25:34;;;;;;;3.35;1.30;;;12.00;97.80;;;;;;4981797;28;20056;-84
2023/03/30 07:28:10;;;;;;;6.05;1.10;;;12.00;98.00;;;;;;4980702;28;20078;-84
2023/03/30 07:30:37;;;;;;;6.35;1.10;;;12.00;97.80;;;;;;4996855;28;20042;-84
2023/03/30 07:33:07;;;;;;;4.25;1.48;;;12.20;97.80;;;;;;4996649;28;20073;-83
2023/03/30 07:35:34;;;;;;;5.25;2.17;;;12.50;97.60;;;;;;4980429;28;20050;-83
2023/03/30 07:38:05;;;;;;;7.53;1.80;;;12.60;97.60;;;;;;4980334;28;20506;-83
2023/03/30 07:40:36;;;;;;;3.63;1.77;;;12.80;97.20;;;;;;4967815;28;20054;-84
2023/03/30 07:43:05;;;;;;;5.45;1.33;;;12.90;97.00;;;;;;4987793;28;20050;-83
2023/03/30 07:45:33;;;;;;;6.50;1.63;;;13.00;96.90;;;;;;4994347;28;20100;-87
2023/03/30 07:48:01;;;;;;;9.43;2.00;;;13.10;96.60;;;;;;4980705;28;20467;-89
2023/03/30 07:50:29;;;;;;;10.63;1.95;;;13.10;96.40;;;;;;4965351;28;20070;-87
2023/03/30 07:53:00;;;;;;;9.20;1.55;;;13.10;96.20;;;;;;4973609;28;20069;-87
2023/03/30 07:55:31;;;;;;;6.55;1.67;;;13.10;96.10;;;;;;4979701;28;20046;-82
2023/03/30 07:58:13;;;;;;;9.80;1.98;;;13.10;96.00;;;;;;4997092;28;20141;-82
2023/03/30 08:00:44;;;;;;;10.43;1.77;;;13.10;95.90;;;;;;4963648;28;20050;-81
2023/03/30 08:03:46;;;;;;;9.70;2.15;;;13.10;95.60;;;;;;4996264;28;20121;-82
2023/03/30 08:06:31;;;;;;;7.97;1.40;;;13.10;95.10;;;;;;4999060;28;20053;-83
2023/03/30 08:09:06;;;;;;;7.38;2.00;;;13.10;95.10;;;;;;4980034;28;20046;-82
2023/03/30 08:11:35;;;;;;;11.70;2.28;;;13.10;95.00;;;;;;4995972;28;20044;-87
2023/03/30 08:14:05;;;;;;;12.48;2.78;;;13.10;94.60;;;;;;4978633;28;20446;-82
2023/03/30 08:16:33;;;;;;;11.02;2.42;;;13.10;94.30;;;;;;4996355;28;20057;-82
2023/03/30 08:19:07;;;;;;;8.50;1.70;;;13.10;93.80;;;;;;4995375;28;20052;-82
2023/03/30 08:21:37;;;;;;;8.18;1.92;;;13.10;94.00;;;;;;4978910;28;20046;-82
2023/03/30 08:24:05;;;;;;;11.13;1.88;;;13.20;93.70;;;;;;4996316;28;20062;-87
2023/03/30 08:26:35;;;;;;;10.93;1.77;;;13.20;93.50;;;;;;4982912;28;20038;-82
2023/03/30 08:29:02;;;;;;;8.73;1.55;;;13.20;93.60;;;;;;4981273;28;20073;-82
2023/03/30 08:31:33;;;;;;;12.80;2.83;;;13.20;93.40;;;;;;4990435;28;20053;-87
2023/03/30 08:34:03;;;;;;;15.13;2.65;;;13.30;93.30;;;;;;4973216;28;20058;-82
2023/03/30 08:36:31;;;;;;;10.98;1.75;;;13.30;93.00;;;;;;4979578;28;20045;-82
2023/03/30 08:39:00;;;;;;;15.38;1.65;;;13.30;93.00;;;;;;4990970;28;20063;-87
2023/03/30 08:41:39;;;;;;;12.77;3.03;;;13.50;93.00;;;;;;4996791;28;20042;-86
2023/03/30 08:44:34;;;;;;;13.98;2.45;;;13.70;92.80;;;;;;4980248;28;20042;-86
2023/03/30 08:47:05;;;;;;;8.73;1.98;;;13.90;92.30;;;;;;4979846;28;20088;-87
2023/03/30 08:49:41;;;;;;;9.88;1.50;;;13.90;92.10;;;;;;4980555;28;20081;-87
2023/03/30 08:52:15;;;;;;;10.43;1.73;;;13.90;92.00;;;;;;4995842;28;20046;-87
2023/03/30 08:54:42;;;;;;;12.80;2.30;;;13.80;91.90;;;;;;4999699;28;20054;-86
2023/03/30 08:57:49;;;;;;;12.93;3.20;;;13.70;91.80;;;;;;4948674;28;20057;-87
2023/03/30 09:00:26;;;;;;;11.75;1.83;;;13.70;91.70;;;;;;4997611;28;20053;-87
2023/03/30 09:03:34;;;;;;;11.70;2.08;;;13.70;91.80;;;;;;4989993;28;20060;-87
2023/03/30 09:06:26;;;;;;;15.93;2.30;;;13.60;91.60;;;;;;4985997;28;20046;-87
2023/03/30 09:08:54;;;;;;;7.40;1.52;;;13.60;91.60;;;;;;4999167;28;20050;-86
2023/03/30 09:11:33;;;;;;;6.18;1.35;;;13.50;91.50;;;;;;4968866;28;20049;-87
2023/03/30 09:14:05;;;;;;;12.10;2.65;;;13.50;91.50;;;;;;5009336;28;20053;-87
2023/03/30 09:16:50;;;;;;;12.48;1.85;;;13.50;91.50;;;;;;4984524;28;20054;-86
2023/03/30 09:19:24;;;;;;;11.55;2.30;;;13.60;91.40;;;;;;4999021;28;20100;-85
2023/03/30 09:21:56;;;;;;;9.88;1.92;;;13.50;91.30;;;;;;5001130;28;20061;-85
2023/03/30 09:24:28;;;;;;;12.05;2.28;;;13.30;91.60;;;;;;4980539;28;20038;-86
2023/03/30 09:27:25;;;;;;;9.00;2.97;;;13.10;92.30;;;;;;4999205;28;20037;-86
2023/03/30 09:30:03;;;;;;;9.68;2.15;;;12.80;93.20;;;;;;4980592;28;20046;-86
2023/03/30 09:32:35;;;;;;;10.57;3.05;;;12.50;94.10;;;;;;4988645;28;20060;-85
2023/03/30 09:35:11;;;;;;;8.80;2.40;;;12.40;94.70;;;;;;4998653;28;20080;-85
2023/03/30 09:37:38;;;;;;;8.45;2.47;;;12.30;95.00;;;;;;4990622;28;20383;-85
2023/03/30 09:40:32;;;;;;;8.48;2.47;;;12.40;95.00;;;;;;4987955;28;20041;-86
2023/03/30 09:43:20;;;;;;;9.45;2.55;;;12.60;95.00;;;;;;4976643;28;20557;-83
2023/03/30 09:45:47;;;;;;;16.77;3.08;;;12.70;95.00;;;;;;4959713;28;20078;-85
2023/03/30 09:48:15;;;;;;;11.50;3.33;;;12.70;95.00;;;;;;4964609;28;20057;-86
2023/03/30 09:50:45;;;;;;;18.33;3.92;;;12.70;94.80;;;;;;4960052;28;20097;-86
2023/03/30 09:53:24;;;;;;;16.73;2.88;;;12.80;94.70;;;;;;4968895;28;20054;-87
2023/03/30 09:55:59;;;;;;;14.98;2.35;;;12.80;94.60;;;;;;4979906;28;20053;-86
2023/03/30 09:58:31;;;;;;;17.83;3.70;;;12.80;94.60;;;;;;4979107;28;20057;-85
2023/03/30 10:01:11;;;;;;;13.05;2.55;;;12.80;94.40;;;;;;4980466;28;20050;-86
2023/03/30 10:03:40;;;;;;;15.68;2.78;;;13.00;94.10;;;;;;4979515;28;20498;-87
2023/03/30 10:06:11;;;;;;;15.13;3.20;;;13.10;93.80;;;;;;4969311;28;20077;-87
2023/03/30 10:08:49;;;;;;;17.00;2.42;;;13.20;93.60;;;;;;4957556;28;20506;-87
2023/03/30 10:11:39;;;;;;;12.30;3.17;;;13.40;93.30;;;;;;4973262;28;20082;-88
2023/03/30 10:14:30;;;;;;;18.20;2.80;;;13.40;92.90;;;;;;4995619;28;20050;-87
2023/03/30 10:16:58;;;;;;;13.20;4.15;;;13.60;92.30;;;;;;4959511;28;20081;-87
2023/03/30 10:19:26;;;;;;;16.67;3.05;;;13.80;91.70;;;;;;4956875;28;20107;-86
2023/03/30 10:21:56;;;;;;;16.02;3.00;;;14.10;91.30;;;;;;4984788;28;20042;-85
2023/03/30 10:24:30;;;;;;;14.65;2.72;;;14.20;90.90;;;;;;4984192;28;20112;-85
2023/03/30 10:27:10;;;;;;;10.38;2.17;;;14.30;90.90;;;;;;4958955;28;20038;-85
2023/03/30 10:29:37;;;;;;;13.45;3.05;;;14.30;90.60;;;;;;4978967;28;20046;-85
2023/03/30 10:32:17;;;;;;;11.68;2.85;;;14.20;90.20;;;;;;4946474;28;20402;-83
2023/03/30 10:34:59;;;;;;;11.95;3.20;;;14.20;89.90;;;;;;4991832;28;20100;-88
2023/03/30 10:37:37;;;;;;;17.08;2.58;;;14.20;89.30;;;;;;4959987;28;20400;-88
2023/03/30 10:40:23;;;;;;;13.45;2.80;;;14.10;89.00;;;;;;4949292;28;20058;-89
2023/03/30 10:43:27;;;;;;;9.57;2.42;;;14.10;88.50;;;;;;4978660;28;20055;-88
2023/03/30 10:45:57;;;;;;;13.75;2.63;;;14.20;88.20;;;;;;4973345;28;20043;-87
2023/03/30 10:48:57;;;;;;;12.90;2.40;;;14.30;87.40;;;;;;4970821;28;20075;-86
2023/03/30 10:51:31;;;;;;;12.60;2.90;;;14.40;87.10;;;;;;4962180;28;20042;-88
2023/03/30 10:54:09;;;;;;;12.27;2.95;;;14.60;86.00;;;;;;4978238;28;20049;-89
2023/03/30 10:56:45;;;;;;;14.10;2.78;;;14.80;85.50;;;;;;4985410;28;20050;-87
2023/03/30 10:59:41;;;;;;;15.40;3.33;;;14.90;84.80;;;;;;4978324;28;20046;-87
2023/03/30 11:02:27;;;;;;;14.15;2.58;;;15.00;84.10;;;;;;4951964;28;20094;-87
2023/03/30 11:05:08;;;;;;;16.00;3.08;;;15.00;83.10;;;;;;4978017;28;20093;-89
2023/03/30 11:07:59;;;;;;;13.27;2.65;;;14.90;82.90;;;;;;4950234;28;20061;-88
2023/03/30 11:10:45;;;;;;;14.48;3.03;;;14.80;83.70;;;;;;4973125;28;20042;-88
2023/03/30 11:13:30;;;;;;;13.50;3.17;;;14.70;84.10;;;;;;4976883;28;20048;-89
2023/03/30 11:16:03;;;;;;;15.18;4.28;;;14.70;84.10;;;;;;4972269;28;20487;-89
2023/03/30 11:18:42;;;;;;;16.27;3.67;;;14.70;83.60;;;;;;4958085;28;20057;-90
2023/03/30 11:21:19;;;;;;;16.23;3.80;;;14.90;83.90;;;;;;4977939;28;20521;-89
2023/03/30 11:23:55;;;;;;;14.50;3.30;;;15.10;83.50;;;;;;4977968;28;20093;-90
2023/03/30 11:26:46;;;;;;;12.82;3.83;;;15.10;83.10;;;;;;4977849;28;20050;-89
2023/03/30 11:29:30;;;;;;;11.05;3.17;;;15.10;83.00;;;;;;4977984;28;20053;-88
2023/03/30 11:32:26;;;;;;;14.10;3.40;;;15.20;82.50;;;;;;4974672;28;20049;-87
2023/03/30 11:35:10;;;;;;;15.15;3.42;;;15.30;81.60;;;;;;4969436;28;20149;-87
2023/03/30 11:37:46;;;;;;;11.02;3.30;;;15.40;81.30;;;;;;4973536;28;20096;-87
2023/03/30 11:40:21;;;;;;;14.10;3.22;;;15.60;80.00;;;;;;4967410;28;20124;-87
2023/03/30 11:42:52;;;;;;;12.95;2.78;;;15.80;79.30;;;;;;4951016;28;20055;-86
2023/03/30 11:45:48;;;;;;;13.85;2.70;;;15.70;78.60;;;;;;4961745;28;20116;-87
2023/03/30 11:48:24;;;;;;;15.40;3.05;;;15.70;79.00;;;;;;4977374;28;20104;-88
2023/03/30 11:51:08;;;;;;;12.98;2.03;;;15.70;78.30;;;;;;4989420;28;20046;-88
2023/03/30 11:54:29;;;;;;;10.48;2.03;;;15.60;78.30;;;;;;4973838;28;20042;-87
2023/03/30 11:57:35;;;;;;;8.73;2.22;;;15.60;78.00;;;;;;4950592;28;20085;-87
2023/03/30 12:00:21;;;;;;;8.68;1.60;;;15.60;78.30;;;;;;4959488;28;20042;-87
2023/03/30 12:02:57;;;;;;;12.35;1.75;;;15.60;78.50;;;;;;4977588;28;20069;-89
2023/03/30 12:05:29;;;;;;;9.18;2.08;;;15.60;78.10;;;;;;4977412;28;20042;-88
2023/03/30 12:08:38;;;;;;;9.98;2.10;;;15.50;78.20;;;;;;4977684;28;20058;-86
2023/03/30 12:11:26;;;;;;;10.48;1.40;;;15.50;78.50;;;;;;4965558;28;20053;-86
2023/03/30 12:13:54;;;;;;;12.68;2.05;;;15.60;78.50;;;;;;4961439;28;20104;-87
2023/03/30 12:16:31;;;;;;;13.15;1.92;;;15.60;78.10;;;;;;4976975;28;20056;-87
2023/03/30 12:19:30;;;;;;;10.25;2.25;;;15.70;78.20;;;;;;4977161;28;20049;-87
2023/03/30 12:22:17;;;;;;;16.90;2.30;;;15.80;78.10;;;;;;4976994;28;20458;-87
2023/03/30 12:24:57;;;;;;;12.13;1.85;;;15.80;76.90;;;;;;4977027;28;20081;-89
2023/03/30 12:27:27;;;;;;;13.13;1.48;;;15.90;76.90;;;;;;4991181;28;20049;-89
2023/03/30 12:30:22;;;;;;;10.90;1.83;;;15.90;77.40;;;;;;4976108;28;20546;-88
2023/03/30 12:33:17;;;;;;;14.35;2.50;;;15.90;76.80;;;;;;4978568;28;20049;-86
2023/03/30 12:35:47;;;;;;;12.07;1.92;;;15.80;76.20;;;;;;4963980;28;20097;-85
2023/03/30 12:38:24;;;;;;;10.88;1.88;;;15.80;75.40;;;;;;4993378;28;20137;-85
2023/03/30 12:41:13;;;;;;;9.93;1.90;;;15.80;75.30;;;;;;4973444;28;20054;-87
2023/03/30 12:43:48;;;;;;;8.68;2.00;;;15.80;75.30;;;;;;5002346;28;20547;-86
2023/03/30 12:46:29;;;;;;;9.68;1.90;;;15.80;75.20;;;;;;5000117;28;20033;-85
2023/03/30 12:49:24;;;;;;;12.18;1.70;;;15.80;74.60;;;;;;5019517;28;20042;-83
2023/03/30 12:52:16;;;;;;;13.57;1.65;;;15.90;73.70;;;;;;5026345;28;20072;-85
2023/03/30 12:55:12;;;;;;;14.98;2.75;;;15.90;73.60;;;;;;5011138;28;20387;-84
2023/03/30 12:58:03;;;;;;;9.55;1.67;;;15.80;73.90;;;;;;4989054;28;20054;-85
2023/03/30 13:01:06;;;;;;;10.38;2.10;;;15.80;74.50;;;;;;4990073;28;20046;-89
2023/03/30 13:03:39;;;;;;;13.70;2.15;;;15.80;74.60;;;;;;4996310;28;20048;-82
2023/03/30 13:06:16;;;;;;;15.55;2.97;;;15.80;74.20;;;;;;5000499;28;20078;-87
2023/03/30 13:08:44;;;;;;;18.73;2.65;;;15.80;74.30;;;;;;4981243;28;20141;-88
2023/03/30 13:11:16;;;;;;;9.57;1.75;;;15.80;74.00;;;;;;5004336;28;20041;-88
2023/03/30 13:13:58;;;;;;;9.77;2.42;;;15.80;74.40;;;;;;4995536;28;20088;-84
2023/03/30 13:17:05;;;;;;;10.13;1.77;;;15.90;73.70;;;;;;4986938;28;20137;-86
2023/03/30 13:19:32;;;;;;;11.45;2.17;;;15.80;73.10;;;;;;4983510;28;20049;-86
2023/03/30 13:22:11;;;;;;;9.55;1.63;;;15.80;73.30;;;;;;4988626;28;20121;-83
2023/03/30 13:24:42;;;;;;;11.07;2.10;;;15.90;73.00;;;;;;5016265;28;20490;-87
2023/03/30 13:27:28;;;;;;;8.32;1.50;;;16.10;73.30;;;;;;4988694;28;20070;-91
2023/03/30 13:29:59;;;;;;;9.75;1.85;;;16.20;73.10;;;;;;4986916;28;20435;-88
2023/03/30 13:32:39;;;;;;;10.00;1.95;;;16.20;73.00;;;;;;4978937;28;20049;-87
2023/03/30 13:35:24;;;;;;;5.38;1.30;;;16.10;72.40;;;;;;4980526;28;20560;-88
2023/03/30 13:38:24;;;;;;;14.25;2.03;;;16.00;72.20;;;;;;4999859;28;20926;-88
2023/03/30 13:41:07;;;;;;;11.60;2.10;;;15.80;73.00;;;;;;4975189;28;20055;-88
2023/03/30 13:43:49;;;;;;;;;;;15.60;74.00;;;;;;5013508;28;20140;-85